Time;durP1;ratioP1;P1;durP2;ratioP2;P2;SDS_P1;SDS_P2;PMS_P1;PMS_P2;Temp;Humidity;BMP_temperature;BMP_pressure;BME280_temperature;BME280_humidity;BME280_pressure;Samples;Min_cycle;Max_cycle;Signal;HPM_P1;HPM_P2
2022/06/28 00:00:19;;;;;;;11.10;3.17;;;;;;;14.63;100.00;101289.81;5064571;28;20120;-75
2022/06/28 00:02:45;;;;;;;11.93;2.90;;;;;;;14.62;100.00;101296.44;5065004;28;20031;-75
2022/06/28 00:05:11;;;;;;;11.90;3.05;;;;;;;14.63;100.00;101291.75;5065331;28;20036;-74
2022/06/28 00:07:44;;;;;;;6.18;2.30;;;;;;;14.62;100.00;101288.16;5065336;28;20402;-75
2022/06/28 00:10:12;;;;;;;11.43;2.83;;;;;;;14.63;100.00;101292.56;5051047;28;20503;-75
2022/06/28 00:12:38;;;;;;;5.30;3.05;;;;;;;14.63;100.00;101297.28;5065089;28;20028;-75
2022/06/28 00:17:50;;;;;;;8.05;2.55;;;;;;;14.45;100.00;101296.91;5065002;28;20035;-75
2022/06/28 00:20:16;;;;;;;9.77;2.50;;;;;;;14.47;100.00;101288.34;5065477;28;20020;-74
2022/06/28 00:22:41;;;;;;;4.93;2.05;;;;;;;14.43;100.00;101281.78;5049168;28;20857;-74
2022/06/28 00:25:07;;;;;;;5.20;2.00;;;;;;;14.34;100.00;101281.63;5049625;28;20131;-74
2022/06/28 00:27:33;;;;;;;8.43;2.55;;;;;;;14.38;100.00;101284.59;5066014;28;20094;-74
2022/06/28 00:29:58;;;;;;;7.72;2.30;;;;;;;14.37;100.00;101277.47;5050527;28;20032;-74
2022/06/28 00:32:24;;;;;;;8.05;2.40;;;;;;;14.39;100.00;101280.75;5063751;28;20032;-74
2022/06/28 00:34:49;;;;;;;7.10;2.38;;;;;;;14.28;100.00;101282.81;5064621;28;20409;-74
2022/06/28 00:37:15;;;;;;;6.20;2.22;;;;;;;14.37;100.00;101275.53;5048459;28;20037;-74
2022/06/28 00:39:40;;;;;;;6.97;2.28;;;;;;;14.38;100.00;101282.69;5064395;28;20049;-74
2022/06/28 00:42:08;;;;;;;6.53;2.13;;;;;;;14.36;100.00;101276.63;5049734;28;20136;-74
2022/06/28 00:44:34;;;;;;;5.75;2.10;;;;;;;14.32;100.00;101287.44;5063231;28;20040;-74
2022/06/28 00:47:00;;;;;;;8.32;3.42;;;;;;;14.33;100.00;101289.09;5064943;28;20120;-74
2022/06/28 00:49:27;;;;;;;7.13;2.00;;;;;;;14.32;100.00;101287.44;5065149;28;20028;-74
2022/06/28 00:51:56;;;;;;;5.78;2.15;;;;;;;14.29;100.00;101296.31;5066190;28;20021;-74
2022/06/28 00:54:21;;;;;;;9.35;2.03;;;;;;;14.20;100.00;101291.75;5066148;28;20035;-74
2022/06/28 00:56:47;;;;;;;4.57;1.95;;;;;;;14.27;100.00;101292.22;5066130;28;20048;-74
2022/06/28 00:59:12;;;;;;;5.35;1.80;;;;;;;14.22;100.00;101295.03;5064241;28;20033;-74
2022/06/28 01:01:37;;;;;;;7.38;2.70;;;;;;;14.19;100.00;101296.44;5065327;28;20040;-74
2022/06/28 01:04:03;;;;;;;10.05;2.35;;;;;;;14.16;100.00;101302.53;5043809;28;20127;-74
2022/06/28 01:06:29;;;;;;;8.98;1.90;;;;;;;14.09;100.00;101291.88;5065008;28;20115;-75
2022/06/28 01:08:54;;;;;;;7.35;2.22;;;;;;;14.15;100.00;101301.75;5048276;28;20231;-75
2022/06/28 01:11:20;;;;;;;6.22;2.00;;;;;;;14.10;100.00;101303.72;5065842;28;20386;-76
2022/06/28 01:14:03;;;;;;;7.82;1.80;;;;;;;14.00;100.00;101307.41;5048747;28;20416;-75
2022/06/28 01:16:29;;;;;;;8.07;2.20;;;;;;;14.05;100.00;101307.38;5065210;28;20073;-73
2022/06/28 01:18:56;;;;;;;8.57;2.00;;;;;;;14.07;100.00;101296.88;5060961;28;20046;-73
2022/06/28 01:21:27;;;;;;;7.22;2.20;;;;;;;14.05;100.00;101298.28;5065340;28;20028;-74
2022/06/28 01:23:54;;;;;;;8.32;2.05;;;;;;;14.02;100.00;101296.09;5047478;28;20055;-75
2022/06/28 01:26:20;;;;;;;8.15;2.25;;;;;;;13.99;100.00;101294.78;5065641;28;20017;-73
2022/06/28 01:28:47;;;;;;;8.27;2.13;;;;;;;14.00;100.00;101292.81;5047576;28;20024;-74
2022/06/28 01:31:13;;;;;;;10.68;2.10;;;;;;;13.95;100.00;101297.28;5063033;28;20029;-74
2022/06/28 01:33:40;;;;;;;4.88;2.20;;;;;;;13.93;100.00;101305.03;5063592;28;20050;-74
2022/06/28 01:36:09;;;;;;;8.68;2.10;;;;;;;13.89;100.00;101309.50;5029025;28;20247;-74
2022/06/28 01:38:36;;;;;;;6.15;2.20;;;;;;;13.96;100.00;101307.19;5065328;28;20039;-74
2022/06/28 01:41:02;;;;;;;7.32;2.08;;;;;;;13.93;100.00;101302.25;5064922;28;20032;-75
2022/06/28 01:43:37;;;;;;;8.68;2.10;;;;;;;13.87;100.00;101297.94;5064277;28;20182;-74
2022/06/28 01:46:05;;;;;;;9.73;2.53;;;;;;;13.97;100.00;101297.00;5061971;28;20490;-75
2022/06/28 01:48:32;;;;;;;8.70;2.47;;;;;;;13.95;100.00;101300.06;5059898;28;20025;-75
2022/06/28 01:50:58;;;;;;;8.02;2.28;;;;;;;13.95;100.00;101300.06;5061347;28;20051;-75
2022/06/28 01:53:23;;;;;;;12.32;2.28;;;;;;;13.95;100.00;101305.56;5060946;28;20016;-74
2022/06/28 01:55:48;;;;;;;9.45;2.30;;;;;;;13.87;100.00;101306.22;5045499;28;20150;-75
2022/06/28 01:58:14;;;;;;;7.95;2.33;;;;;;;13.86;100.00;101310.06;5084196;28;20036;-75
2022/06/28 02:00:40;;;;;;;9.77;2.40;;;;;;;13.84;100.00;101320.56;5063229;28;20084;-75
2022/06/28 02:03:05;;;;;;;8.63;1.90;;;;;;;13.78;100.00;101322.56;5049250;28;20035;-74
2022/06/28 02:05:33;;;;;;;9.07;2.20;;;;;;;13.88;100.00;101326.31;5083447;28;20486;-75
2022/06/28 02:07:59;;;;;;;7.80;2.17;;;;;;;13.83;100.00;101323.63;5066748;28;20031;-73
2022/06/28 02:10:25;;;;;;;8.00;2.40;;;;;;;13.77;100.00;101328.34;5083886;28;20446;-74
2022/06/28 02:12:50;;;;;;;7.22;1.95;;;;;;;13.79;100.00;101323.41;5066038;28;20059;-75
2022/06/28 02:15:16;;;;;;;7.95;2.00;;;;;;;13.74;100.00;101318.75;5064788;28;20093;-75
2022/06/28 02:17:43;;;;;;;6.35;1.90;;;;;;;13.71;100.00;101329.53;5064007;28;20101;-75
2022/06/28 02:20:09;;;;;;;8.73;2.47;;;;;;;13.74;100.00;101326.19;5082673;28;20020;-75
2022/06/28 02:22:38;;;;;;;8.63;1.80;;;;;;;13.73;100.00;101325.38;5083377;28;20020;-75
2022/06/28 02:25:03;;;;;;;9.35;2.42;;;;;;;13.59;100.00;101329.91;5084050;28;20055;-74
2022/06/28 02:27:29;;;;;;;7.05;2.00;;;;;;;13.56;100.00;101325.81;5085292;28;20066;-75
2022/06/28 02:29:54;;;;;;;5.88;1.75;;;;;;;13.62;100.00;101328.53;5063528;28;20031;-73
2022/06/28 02:32:20;;;;;;;9.60;2.10;;;;;;;13.63;100.00;101319.16;5065253;28;20020;-75
2022/06/28 02:40:23;;;;;;;8.23;1.95;;;;;;;13.70;100.00;101320.44;5082875;28;20101;-75
2022/06/28 02:43:00;;;;;;;7.95;2.30;;;;;;;13.53;100.00;101317.31;5062638;28;20466;-75
2022/06/28 02:45:29;;;;;;;6.53;2.10;;;;;;;13.57;100.00;101319.19;5059459;28;20024;-75
2022/06/28 02:47:55;;;;;;;9.77;2.33;;;;;;;13.63;100.00;101322.72;5077598;28;20161;-75
2022/06/28 02:50:20;;;;;;;8.40;2.13;;;;;;;13.63;100.00;101319.16;5064313;28;20023;-75
2022/06/28 02:52:46;;;;;;;9.52;2.40;;;;;;;13.62;100.00;101323.00;5066159;28;20129;-75
2022/06/28 02:55:12;;;;;;;7.60;2.30;;;;;;;13.65;100.00;101316.91;5066567;28;20055;-75
2022/06/28 02:57:38;;;;;;;4.45;2.00;;;;;;;13.66;100.00;101324.06;5030650;28;20130;-74
2022/06/28 03:00:11;;;;;;;8.35;2.08;;;;;;;13.64;100.00;101320.78;5063194;28;20123;-74
2022/06/28 03:02:41;;;;;;;10.10;2.78;;;;;;;13.53;100.00;101339.34;5082125;28;20031;-75
2022/06/28 03:05:18;;;;;;;11.00;2.42;;;;;;;13.53;100.00;101340.16;5066790;28;20056;-75
2022/06/28 03:07:44;;;;;;;6.45;2.20;;;;;;;13.57;100.00;101324.69;5086662;28;20028;-75
2022/06/28 03:10:11;;;;;;;12.18;2.30;;;;;;;13.52;100.00;101324.75;5086564;28;20040;-75
2022/06/28 03:12:42;;;;;;;5.60;2.28;;;;;;;13.56;100.00;101330.50;5069739;28;20052;-75
2022/06/28 03:15:09;;;;;;;6.25;2.40;;;;;;;13.53;100.00;101337.41;5069156;28;20109;-75
2022/06/28 03:17:36;;;;;;;8.05;2.25;;;;;;;13.53;100.00;101331.91;5052392;28;20481;-75
2022/06/28 03:20:01;;;;;;;8.30;2.60;;;;;;;13.50;100.00;101340.75;5070356;28;20036;-75
2022/06/28 03:22:28;;;;;;;6.28;2.20;;;;;;;13.53;100.00;101348.44;5087249;28;20477;-75
2022/06/28 03:24:53;;;;;;;7.75;1.98;;;;;;;13.56;100.00;101345.09;5069853;28;20016;-75
2022/06/28 03:27:19;;;;;;;7.72;2.22;;;;;;;13.53;100.00;101355.88;5055037;28;20028;-75
2022/06/28 03:29:44;;;;;;;8.15;1.80;;;;;;;13.52;100.00;101357.00;5050639;28;20435;-74
2022/06/28 03:32:09;;;;;;;9.60;2.47;;;;;;;13.51;100.00;101356.19;5088298;28;20097;-75
2022/06/28 03:34:35;;;;;;;5.50;2.50;;;;;;;13.49;100.00;101358.38;5068102;28;20467;-75
2022/06/28 03:37:00;;;;;;;7.28;2.20;;;;;;;13.46;100.00;101366.41;5052435;28;20082;-74
2022/06/28 03:39:26;;;;;;;10.65;2.20;;;;;;;13.47;100.00;101366.13;5070197;28;20024;-74
2022/06/28 03:41:51;;;;;;;7.95;2.35;;;;;;;13.43;100.00;101370.56;5036955;28;20059;-73
2022/06/28 03:44:17;;;;;;;7.22;1.95;;;;;;;13.39;100.00;101367.53;5052148;28;20115;-74
2022/06/28 03:46:43;;;;;;;6.05;2.28;;;;;;;13.39;100.00;101370.31;5070006;28;20106;-75
2022/06/28 03:49:08;;;;;;;8.95;2.17;;;;;;;13.41;100.00;101362.59;5052087;28;20131;-75
2022/06/28 03:51:34;;;;;;;8.35;2.45;;;;;;;13.47;100.00;101368.88;5068852;28;20120;-75
2022/06/28 03:53:59;;;;;;;9.75;2.53;;;;;;;13.49;100.00;101380.41;5051734;28;20518;-74
2022/06/28 03:56:26;;;;;;;10.02;2.40;;;;;;;13.53;100.00;101373.22;5046962;28;20261;-74
2022/06/28 03:58:51;;;;;;;12.90;2.55;;;;;;;13.42;100.00;101378.00;5043572;28;20036;-74
2022/06/28 04:01:16;;;;;;;8.32;2.33;;;;;;;13.45;100.00;101376.59;5028125;28;20021;-74
2022/06/28 04:03:45;;;;;;;12.30;2.83;;;;;;;13.45;100.00;101384.06;5061009;28;20029;-74
2022/06/28 04:06:10;;;;;;;8.15;2.17;;;;;;;13.50;100.00;101393.09;5041717;28;20075;-75
2022/06/28 04:08:35;;;;;;;8.60;2.40;;;;;;;13.52;100.00;101379.03;5062911;28;20065;-74
2022/06/28 04:11:16;;;;;;;10.38;3.22;;;;;;;13.57;100.00;101388.06;5044838;28;20564;-74
2022/06/28 04:13:47;;;;;;;6.78;2.15;;;;;;;13.61;100.00;101382.81;5045952;28;20422;-74
2022/06/28 04:16:13;;;;;;;9.05;2.67;;;;;;;13.65;100.00;101378.34;5059098;28;20032;-74
2022/06/28 04:18:40;;;;;;;13.68;2.80;;;;;;;13.64;100.00;101387.72;5043281;28;20444;-74
2022/06/28 04:21:06;;;;;;;8.65;2.67;;;;;;;13.67;100.00;101387.13;5042257;28;20405;-75
2022/06/28 04:23:31;;;;;;;13.18;2.85;;;;;;;13.72;100.00;101386.28;5045024;28;20017;-74
2022/06/28 04:25:57;;;;;;;9.35;2.63;;;;;;;13.76;100.00;101373.56;5042812;28;20652;-74
2022/06/28 04:28:22;;;;;;;8.20;2.60;;;;;;;13.85;100.00;101380.06;5045218;28;20021;-74
2022/06/28 04:30:48;;;;;;;9.40;3.00;;;;;;;13.85;100.00;101385.59;5042378;28;20532;-75
2022/06/28 04:33:14;;;;;;;13.32;2.55;;;;;;;13.88;100.00;101387.78;5060778;28;20131;-75
2022/06/28 04:35:39;;;;;;;9.68;2.78;;;;;;;13.86;100.00;101378.97;5044117;28;20028;-75
2022/06/28 04:38:04;;;;;;;10.38;2.90;;;;;;;13.87;100.00;101380.63;5043637;28;20055;-75
2022/06/28 04:40:30;;;;;;;10.88;2.85;;;;;;;13.93;100.00;101373.94;5045384;28;20116;-75
2022/06/28 04:42:55;;;;;;;10.25;2.65;;;;;;;14.03;100.00;101366.66;5043391;28;20037;-75
2022/06/28 04:45:21;;;;;;;11.48;2.92;;;;;;;14.05;100.00;101369.94;5042350;28;20459;-75
2022/06/28 04:47:48;;;;;;;11.45;3.72;;;;;;;14.18;100.00;101373.94;5060580;28;20149;-75
2022/06/28 04:50:22;;;;;;;12.95;3.00;;;;;;;14.10;100.00;101365.22;5043317;28;20328;-74
2022/06/28 04:52:49;;;;;;;14.43;3.10;;;;;;;14.22;100.00;101364.00;5044390;28;20029;-75
2022/06/28 04:55:15;;;;;;;15.57;3.45;;;;;;;14.21;100.00;101367.84;5045978;28;20494;-74
2022/06/28 04:57:41;;;;;;;14.15;3.75;;;;;;;14.37;100.00;101368.50;5059552;28;20356;-75
2022/06/28 05:00:11;;;;;;;12.00;3.63;;;;;;;14.44;100.00;101366.19;5046018;28;20044;-77
2022/06/28 05:02:38;;;;;;;18.33;3.53;;;;;;;14.39;100.00;101369.81;5048516;28;20039;-74
2022/06/28 05:05:04;;;;;;;14.75;3.92;;;;;;;14.56;100.00;101363.84;5064090;28;20482;-74
2022/06/28 05:07:32;;;;;;;10.10;3.60;;;;;;;14.61;100.00;101373.97;5063310;28;20047;-74
2022/06/28 05:09:57;;;;;;;12.60;3.40;;;;;;;14.68;100.00;101367.00;5048479;28;20290;-75
2022/06/28 05:12:22;;;;;;;13.20;3.92;;;;;;;14.72;100.00;101367.22;5031200;28;20025;-74
2022/06/28 05:14:53;;;;;;;17.70;3.85;;;;;;;14.76;100.00;101365.50;5061596;28;20211;-74
2022/06/28 05:17:19;;;;;;;12.00;3.80;;;;;;;14.87;100.00;101363.41;5047823;28;20399;-74
2022/06/28 05:19:44;;;;;;;16.58;4.20;;;;;;;14.90;100.00;101376.63;5045707;28;20482;-74
2022/06/28 05:22:10;;;;;;;11.77;3.75;;;;;;;14.92;100.00;101368.03;5062248;28;20098;-74
2022/06/28 05:24:36;;;;;;;16.48;3.92;;;;;;;14.94;100.00;101366.63;5063356;28;20036;-74
2022/06/28 05:27:02;;;;;;;19.83;4.30;;;;;;;14.95;100.00;101372.97;5064484;28;20076;-76
2022/06/28 05:29:27;;;;;;;13.48;4.20;;;;;;;15.03;100.00;101370.34;5061660;28;20471;-75
2022/06/28 05:31:52;;;;;;;14.07;4.38;;;;;;;15.18;100.00;101372.06;5063485;28;20035;-75
2022/06/28 05:34:18;;;;;;;16.90;4.38;;;;;;;15.23;100.00;101372.00;5064096;28;20115;-75
2022/06/28 05:36:43;;;;;;;21.60;5.13;;;;;;;15.39;100.00;101380.81;5046167;28;20081;-75
2022/06/28 05:39:09;;;;;;;15.55;5.03;;;;;;;15.36;100.00;101386.13;5062918;28;20458;-74
2022/06/28 05:41:35;;;;;;;17.10;4.43;;;;;;;15.39;100.00;101393.84;5064376;28;20456;-75
2022/06/28 05:44:04;;;;;;;14.05;4.30;;;;;;;15.59;100.00;101401.78;5028657;28;20036;-73
2022/06/28 05:46:30;;;;;;;21.40;5.20;;;;;;;15.57;100.00;101398.50;5063118;28;20119;-74
2022/06/28 05:48:57;;;;;;;13.23;4.15;;;;;;;15.72;100.00;101394.63;5043011;28;20100;-74
2022/06/28 05:51:22;;;;;;;18.00;5.10;;;;;;;15.69;100.00;101402.72;5044326;28;20029;-74
2022/06/28 05:53:47;;;;;;;16.77;5.15;;;;;;;15.71;100.00;101404.06;5029808;28;20031;-74
2022/06/28 05:56:13;;;;;;;15.75;4.90;;;;;;;15.80;100.00;101406.97;5047652;28;20036;-75
2022/06/28 05:58:38;;;;;;;14.93;4.72;;;;;;;15.85;100.00;101420.72;5067042;28;20508;-75
2022/06/28 06:01:04;;;;;;;13.95;4.63;;;;;;;15.85;100.00;101417.13;5063783;28;20132;-75
2022/06/28 06:03:30;;;;;;;15.32;5.20;;;;;;;15.89;100.00;101416.22;5048376;28;20039;-75
2022/06/28 06:05:58;;;;;;;19.77;5.50;;;;;;;15.99;100.00;101409.69;5064014;28;20049;-74
2022/06/28 06:08:23;;;;;;;19.30;5.20;;;;;;;16.16;100.00;101420.16;5065656;28;20043;-74
2022/06/28 06:10:49;;;;;;;15.05;4.80;;;;;;;16.19;100.00;101432.56;5084000;28;20490;-74
2022/06/28 06:13:14;;;;;;;13.82;4.72;;;;;;;16.26;100.00;101431.00;5049243;28;20397;-74
2022/06/28 06:15:40;;;;;;;16.65;4.97;;;;;;;16.22;100.00;101438.31;5065086;28;20110;-74
2022/06/28 06:18:05;;;;;;;21.58;5.63;;;;;;;16.06;100.00;101451.59;5081922;28;20024;-74
2022/06/28 06:20:31;;;;;;;16.08;4.28;;;;;;;16.18;100.00;101475.97;5032565;28;20492;-74
2022/06/28 06:22:59;;;;;;;20.17;5.05;;;;;;;16.03;100.00;101499.22;5083804;28;20127;-73
2022/06/28 06:25:25;;;;;;;15.05;4.35;;;;;;;16.40;100.00;101500.22;5085335;28;20123;-76
2022/06/28 06:27:50;;;;;;;14.30;4.53;;;;;;;16.45;100.00;101522.25;5067999;28;20108;-73
2022/06/28 06:30:16;;;;;;;27.33;4.90;;;;;;;16.32;100.00;101604.13;5064057;28;20066;-74
2022/06/28 06:32:41;;;;;;;16.00;4.15;;;;;;;16.55;100.00;101623.66;5081708;28;20111;-74
2022/06/28 06:35:17;;;;;;;16.33;4.15;;;;;;;16.76;100.00;101610.28;5049973;28;20075;-75
2022/06/28 06:37:42;;;;;;;15.82;4.75;;;;;;;16.85;100.00;101608.44;5052802;28;20101;-74
2022/06/28 06:40:08;;;;;;;14.98;3.95;;;;;;;16.94;100.00;101605.81;5064892;28;20043;-74
2022/06/28 06:42:35;;;;;;;15.13;4.40;;;;;;;17.03;100.00;101608.69;5066845;28;20031;-74
2022/06/28 06:45:01;;;;;;;15.23;4.30;;;;;;;17.08;100.00;101609.38;5048207;28;20024;-75
2022/06/28 06:47:26;;;;;;;13.02;4.70;;;;;;;17.24;100.00;101607.13;5048438;28;20032;-75
2022/06/28 06:49:52;;;;;;;12.90;3.72;;;;;;;17.20;100.00;101619.13;5066095;28;20397;-75
2022/06/28 06:52:17;;;;;;;14.45;3.78;;;;;;;17.29;100.00;101635.88;5064409;28;20267;-75
2022/06/28 06:54:43;;;;;;;12.20;3.72;;;;;;;17.53;100.00;101641.19;5067318;28;20151;-76
2022/06/28 06:57:09;;;;;;;14.90;4.43;;;;;;;17.61;100.00;101657.94;5052976;28;20419;-76
2022/06/28 06:59:34;;;;;;;17.70;4.15;;;;;;;17.80;100.00;101668.06;5026470;28;20041;-76
2022/06/28 07:02:01;;;;;;;16.08;4.03;;;;;;;17.97;100.00;101670.19;5010814;28;20374;-74
2022/06/28 07:04:26;;;;;;;15.75;3.95;;;;;;;18.34;100.00;101677.38;5025505;28;20029;-76
2022/06/28 07:06:52;;;;;;;14.63;3.92;;;;;;;18.46;100.00;101695.44;5043476;28;20098;-76
2022/06/28 07:09:17;;;;;;;15.20;3.88;;;;;;;18.23;100.00;101700.13;5042332;28;20489;-76
2022/06/28 07:11:42;;;;;;;16.42;3.95;;;;;;;17.60;100.00;101725.59;5027663;28;20065;-76
2022/06/28 07:14:08;;;;;;;13.25;3.50;;;;;;;17.83;100.00;101720.94;5042624;28;20453;-77
2022/06/28 07:16:33;;;;;;;10.75;3.78;;;;;;;17.91;100.00;101699.22;5044558;28;20090;-77
2022/06/28 07:19:08;;;;;;;15.77;3.83;;;;;;;17.83;100.00;101698.75;5040005;28;20154;-76
2022/06/28 07:21:33;;;;;;;17.73;4.15;;;;;;;18.17;100.00;101710.56;5043537;28;20233;-76
2022/06/28 07:24:02;;;;;;;15.68;4.10;;;;;;;18.05;100.00;101740.78;5009182;28;20040;-75
2022/06/28 07:26:28;;;;;;;12.98;3.60;;;;;;;18.77;100.00;101714.09;5045783;28;20115;-75
2022/06/28 07:28:53;;;;;;;15.63;4.03;;;;;;;18.93;100.00;101754.28;5026529;28;20116;-74
2022/06/28 07:31:18;;;;;;;14.57;3.05;;;;;;;19.26;100.00;101763.13;5043452;28;20040;-74
2022/06/28 07:33:44;;;;;;;12.77;3.42;;;;;;;19.57;100.00;101790.09;5043270;28;20511;-75
2022/06/28 07:36:10;;;;;;;12.70;3.17;;;;;;;19.96;100.00;101787.69;5039469;28;20029;-75
2022/06/28 07:38:35;;;;;;;16.38;3.92;;;;;;;20.27;100.00;101786.75;5010934;28;20022;-77
2022/06/28 07:41:10;;;;;;;12.18;3.03;;;;;;;20.12;100.00;101802.78;5044349;28;20033;-77
2022/06/28 07:43:35;;;;;;;13.95;3.80;;;;;;;20.33;100.00;101802.16;5044440;28;20025;-75
2022/06/28 07:46:05;;;;;;;11.73;3.38;;;;;;;20.34;100.00;101814.94;5044324;28;20036;-77
2022/06/28 07:48:30;;;;;;;14.02;3.35;;;;;;;19.86;100.00;101835.25;5025291;28;20088;-77
2022/06/28 07:53:39;;;;;;;14.65;3.30;;;;;;;19.85;100.00;101847.53;5047626;28;20127;-76
2022/06/28 07:56:06;;;;;;;13.07;3.33;;;;;;;19.98;100.00;101835.47;5048596;28;20020;-76
2022/06/28 07:58:32;;;;;;;9.25;2.90;;;;;;;20.14;100.00;101827.50;5054643;28;20165;-76
2022/06/28 08:00:58;;;;;;;10.65;3.03;;;;;;;19.99;100.00;101814.88;5069933;28;20114;-77
2022/06/28 08:03:24;;;;;;;13.82;3.22;;;;;;;19.55;100.00;101847.22;5086968;28;20036;-76
2022/06/28 08:05:50;;;;;;;11.02;3.22;;;;;;;19.37;100.00;101844.31;5069557;28;20104;-77
2022/06/28 08:08:15;;;;;;;12.48;3.13;;;;;;;19.60;100.00;101847.88;5053769;28;20032;-76
2022/06/28 08:10:41;;;;;;;11.48;3.25;;;;;;;20.37;100.00;101820.66;5069253;28;20358;-76
2022/06/28 08:13:16;;;;;;;12.68;3.78;;;;;;;19.89;100.00;101845.75;5068835;28;20044;-76
2022/06/28 08:15:42;;;;;;;11.70;3.00;;;;;;;20.57;100.00;101847.06;5053825;28;20047;-76
2022/06/28 08:18:10;;;;;;;8.75;3.03;;;;;;;20.01;100.00;101912.78;5067353;28;20331;-77
2022/06/28 08:20:36;;;;;;;7.05;2.50;;;;;;;19.53;100.00;101949.59;5069318;28;20210;-77
2022/06/28 08:23:02;;;;;;;7.13;2.22;;;;;;;20.02;100.00;101959.78;5076798;28;20079;-77
2022/06/28 08:25:27;;;;;;;9.93;2.50;;;;;;;20.95;100.00;101936.81;5100391;28;20586;-78
2022/06/28 08:27:53;;;;;;;10.30;2.78;;;;;;;21.46;100.00;101972.25;5086140;28;20024;-79
2022/06/28 08:30:18;;;;;;;11.60;2.83;;;;;;;21.35;100.00;102123.53;5053653;28;20422;-78
2022/06/28 08:32:43;;;;;;;10.50;2.80;;;;;;;21.41;100.00;102169.66;5093069;28;20051;-79
2022/06/28 08:35:19;;;;;;;8.27;2.10;;;;;;;21.21;100.00;102151.56;5070115;28;20032;-82
2022/06/28 08:37:45;;;;;;;8.82;2.60;;;;;;;21.17;100.00;102137.44;5060536;28;20495;-77
2022/06/28 08:40:11;;;;;;;9.65;2.30;;;;;;;20.59;100.00;102136.47;5074313;28;20067;-76
2022/06/28 08:42:39;;;;;;;10.23;2.05;;;;;;;21.07;100.00;102141.34;5069473;28;20047;-79
2022/06/28 08:45:05;;;;;;;7.55;2.60;;;;;;;20.86;100.00;102176.50;5066861;28;20028;-79
2022/06/28 08:47:42;;;;;;;10.02;2.17;;;;;;;20.59;100.00;102169.09;5065873;28;20071;-79
2022/06/28 08:50:15;;;;;;;7.53;2.33;;;;;;;21.24;100.00;102160.09;5069293;28;20027;-79
2022/06/28 08:52:42;;;;;;;9.55;2.63;;;;;;;21.18;100.00;102180.91;5068804;28;20361;-79
2022/06/28 08:55:18;;;;;;;9.10;2.60;;;;;;;21.01;100.00;102181.66;5069841;28;20028;-79
2022/06/28 08:57:44;;;;;;;9.63;2.75;;;;;;;20.75;100.00;102148.88;5087155;28;20093;-78
2022/06/28 09:00:26;;;;;;;11.32;2.80;;;;;;;19.80;100.00;102154.59;5082742;28;20086;-78
2022/06/28 09:02:53;;;;;;;9.60;2.80;;;;;;;19.74;100.00;102134.38;5066384;28;20036;-78
2022/06/28 09:05:25;;;;;;;13.13;3.47;;;;;;;20.29;100.00;102119.44;5084738;28;20030;-78
2022/06/28 09:07:52;;;;;;;9.27;2.83;;;;;;;20.49;100.00;102148.72;5067209;28;20024;-78
2022/06/28 09:10:18;;;;;;;10.70;3.20;;;;;;;20.54;100.00;102161.69;5084586;28;20110;-78
2022/06/28 09:12:54;;;;;;;10.30;2.80;;;;;;;20.48;100.00;102149.03;5067931;28;20031;-79
2022/06/28 09:15:23;;;;;;;7.40;2.20;;;;;;;20.89;100.00;102159.13;5083116;28;20035;-77
2022/06/28 09:17:53;;;;;;;9.18;2.35;;;;;;;20.15;100.00;102177.97;5084105;28;20028;-78
2022/06/28 09:20:19;;;;;;;9.68;2.55;;;;;;;20.62;100.00;102183.22;5047551;28;20123;-78
2022/06/28 09:22:45;;;;;;;8.05;2.53;;;;;;;20.97;100.00;102194.56;5051851;28;20441;-78
2022/06/28 09:25:26;;;;;;;6.85;2.22;;;;;;;20.15;100.00;102200.25;5049652;28;20127;-78
2022/06/28 09:27:56;;;;;;;8.00;2.40;;;;;;;20.65;100.00;102188.19;5066177;28;20118;-77
2022/06/28 09:30:22;;;;;;;6.03;1.83;;;;;;;20.97;100.00;102199.34;5082032;28;20111;-78
2022/06/28 09:32:48;;;;;;;7.20;2.40;;;;;;;20.69;100.00;102185.56;5064773;28;20213;-77
2022/06/28 09:35:19;;;;;;;6.28;2.03;;;;;;;21.17;100.00;102184.84;5048474;28;20425;-78
2022/06/28 09:37:53;;;;;;;8.30;2.80;;;;;;;21.24;100.00;102207.50;5067965;28;20206;-77
2022/06/28 09:40:31;;;;;;;8.73;2.33;;;;;;;21.06;100.00;102211.38;5083939;28;20471;-74
2022/06/28 09:43:17;;;;;;;8.23;2.30;;;;;;;21.16;100.00;102199.09;5067079;28;20026;-77
2022/06/28 09:45:50;;;;;;;10.77;2.72;;;;;;;20.57;100.00;102212.03;5049718;28;20056;-77
2022/06/28 09:48:19;;;;;;;6.28;1.75;;;;;;;20.28;100.00;102211.63;5083080;28;20031;-78
2022/06/28 09:50:44;;;;;;;7.07;2.10;;;;;;;21.35;100.00;102201.63;5067539;28;20081;-78
2022/06/28 09:53:18;;;;;;;8.40;2.17;;;;;;;22.10;100.00;102208.03;5050717;28;20028;-78
2022/06/28 09:55:43;;;;;;;7.28;2.10;;;;;;;21.25;100.00;102217.53;5067941;28;20036;-78
2022/06/28 09:58:10;;;;;;;11.07;2.47;;;;;;;20.12;100.00;102209.22;5050384;28;20109;-77
2022/06/28 10:00:39;;;;;;;14.27;3.22;;;;;;;20.26;100.00;102174.94;5063589;28;20039;-76
2022/06/28 10:03:07;;;;;;;12.30;3.00;;;;;;;20.30;100.00;102164.81;5047069;28;20589;-77
2022/06/28 10:05:33;;;;;;;8.70;2.28;;;;;;;20.60;100.00;102184.69;5064453;28;20028;-78
2022/06/28 10:07:59;;;;;;;13.85;3.17;;;;;;;20.46;100.00;102187.53;5066693;28;20130;-78
2022/06/28 10:10:24;;;;;;;9.15;2.45;;;;;;;20.44;100.00;102173.91;5064087;28;20390;-76
2022/06/28 10:15:37;;;;;;;11.90;2.63;;;;;;;20.25;100.00;102171.34;5063748;28;20609;-76
2022/06/28 10:18:20;;;;;;;11.20;2.58;;;;;;;20.66;100.00;102166.72;5062129;28;20742;-77
2022/06/28 10:20:47;;;;;;;8.43;2.42;;;;;;;20.50;100.00;102169.88;5063997;28;20031;-77
2022/06/28 10:23:37;;;;;;;9.25;2.53;;;;;;;20.28;100.00;102173.47;5048996;28;20038;-78
2022/06/28 10:26:11;;;;;;;9.27;2.70;;;;;;;21.02;100.00;102154.59;5067165;28;20115;-78
2022/06/28 10:28:39;;;;;;;13.43;2.90;;;;;;;21.41;100.00;102175.22;5064056;28;20502;-78
2022/06/28 10:31:23;;;;;;;12.68;3.22;;;;;;;20.85;100.00;102170.09;5064914;28;20023;-78
2022/06/28 10:33:54;;;;;;;11.65;2.78;;;;;;;20.49;100.00;102151.50;5082341;28;20103;-78
2022/06/28 10:36:23;;;;;;;9.85;2.60;;;;;;;21.15;100.00;102164.00;5082489;28;20039;-77
2022/06/28 10:39:06;;;;;;;13.75;3.03;;;;;;;20.19;100.00;102165.06;5065266;28;20062;-76
2022/06/28 10:41:52;;;;;;;8.63;2.78;;;;;;;19.83;100.00;102159.53;5083475;28;20032;-76
2022/06/28 10:44:26;;;;;;;14.63;3.03;;;;;;;21.13;100.00;102169.06;5080276;28;20028;-75
2022/06/28 10:47:00;;;;;;;15.77;2.92;;;;;;;20.22;100.00;102160.00;5065862;28;20131;-75
2022/06/28 10:49:27;;;;;;;12.23;2.50;;;;;;;21.48;100.00;102161.69;5061026;28;20020;-76
2022/06/28 10:52:14;;;;;;;9.18;2.38;;;;;;;22.81;100.00;102183.66;5082423;28;20504;-77
2022/06/28 10:55:05;;;;;;;7.80;2.30;;;;;;;22.25;100.00;102170.44;5082382;28;20514;-75
2022/06/28 10:57:30;;;;;;;8.35;2.22;;;;;;;22.62;100.00;102182.06;5068840;28;20094;-76
2022/06/28 10:59:59;;;;;;;9.57;2.35;;;;;;;23.65;100.00;102187.56;5082105;28;20051;-76
2022/06/28 11:02:45;;;;;;;8.55;2.22;;;;;;;23.85;100.00;102197.16;5064921;28;20024;-76
2022/06/28 11:05:13;;;;;;;10.55;2.22;;;;;;;23.64;100.00;102183.09;5064894;28;20028;-77
2022/06/28 11:07:41;;;;;;;7.10;1.83;;;;;;;24.32;100.00;102178.50;5047979;28;20126;-76
2022/06/28 11:10:11;;;;;;;8.32;1.40;;;;;;;24.21;100.00;102173.31;5050493;28;20020;-76
2022/06/28 11:12:42;;;;;;;5.32;1.75;;;;;;;24.61;100.00;102176.75;5065935;28;20027;-76
2022/06/28 11:15:09;;;;;;;2.80;1.38;;;;;;;24.43;100.00;102176.06;5062918;28;20051;-76
2022/06/28 11:17:37;;;;;;;9.45;2.45;;;;;;;23.71;100.00;102174.19;5061014;28;20051;-76
2022/06/28 11:20:11;;;;;;;8.27;2.13;;;;;;;22.67;100.00;102159.53;5063794;28;20040;-76
2022/06/28 11:22:44;;;;;;;7.72;1.90;;;;;;;22.75;100.00;102166.25;5063740;28;20104;-76
2022/06/28 11:25:15;;;;;;;10.63;2.45;;;;;;;23.34;100.00;102154.34;5063944;28;20036;-76
2022/06/28 11:27:55;;;;;;;10.75;2.58;;;;;;;23.62;100.00;102162.22;5066053;28;20035;-77
2022/06/28 11:30:28;;;;;;;9.05;2.30;;;;;;;23.52;100.00;102162.63;5065458;28;20027;-77